createdAt,value
2023-09-23T00:00:29.965Z,13.64
2023-09-23T00:01:30.015Z,13.60
2023-09-23T00:02:30.124Z,13.60
2023-09-23T00:03:30.114Z,13.52
2023-09-23T00:04:30.198Z,13.46
2023-09-23T00:05:30.103Z,13.55
2023-09-23T00:06:30.094Z,13.51
2023-09-23T00:07:30.122Z,13.59
2023-09-23T00:08:30.181Z,13.49
2023-09-23T00:09:30.160Z,13.46
2023-09-23T00:10:30.185Z,13.46
2023-09-23T00:11:30.208Z,13.45
2023-09-23T00:12:30.215Z,13.39
2023-09-23T00:13:30.274Z,13.36
2023-09-23T00:14:30.315Z,13.41
2023-09-23T00:15:30.299Z,13.36
2023-09-23T00:16:30.355Z,13.33
2023-09-23T00:17:30.434Z,13.33
2023-09-23T00:18:30.395Z,13.28
2023-09-23T00:19:30.414Z,13.14
2023-09-23T00:20:30.431Z,13.26
2023-09-23T00:21:30.411Z,13.22
2023-09-23T00:22:30.429Z,13.17
2023-09-23T00:23:30.520Z,13.20
2023-09-23T00:24:30.471Z,13.20
2023-09-23T00:25:30.489Z,13.25
2023-09-23T00:26:30.558Z,13.19
2023-09-23T00:27:30.536Z,13.12
2023-09-23T00:28:30.555Z,13.14
2023-09-23T00:29:30.605Z,13.14
2023-09-23T00:30:30.638Z,13.14
2023-09-23T00:31:30.649Z,13.19
2023-09-23T00:32:30.663Z,13.17
2023-09-23T00:33:30.652Z,13.19
2023-09-23T00:34:30.686Z,13.20
2023-09-23T00:35:30.692Z,13.19
2023-09-23T00:36:30.741Z,13.28
2023-09-23T00:37:30.862Z,13.22
2023-09-23T00:38:30.790Z,13.20
2023-09-23T00:39:30.783Z,13.23
2023-09-23T00:40:30.816Z,13.22
2023-09-23T00:41:30.827Z,13.28
2023-09-23T00:42:30.851Z,13.22
2023-09-23T00:43:30.892Z,13.20
2023-09-23T00:44:30.885Z,13.20
2023-09-23T00:45:31.036Z,13.22
2023-09-23T00:46:30.930Z,13.28
2023-09-23T00:47:30.965Z,13.26
2023-09-23T00:48:30.992Z,13.32
2023-09-23T00:49:30.982Z,13.28
2023-09-23T00:50:31.317Z,13.26
2023-09-23T00:51:31.025Z,13.32
2023-09-23T00:52:31.083Z,13.33
2023-09-23T00:53:31.142Z,13.26
2023-09-23T00:54:31.110Z,13.22
2023-09-23T00:55:31.134Z,13.28
2023-09-23T00:56:31.124Z,13.26
2023-09-23T00:57:31.158Z,13.26
2023-09-23T00:58:31.216Z,13.38
2023-09-23T00:59:31.209Z,13.28
2023-09-23T01:00:31.212Z,13.36
2023-09-23T01:01:31.244Z,13.29
2023-09-23T01:02:31.399Z,13.41
2023-09-23T01:03:31.380Z,13.33
2023-09-23T01:04:31.292Z,13.33
2023-09-23T01:05:31.332Z,13.29
2023-09-23T01:06:31.331Z,13.29
2023-09-23T01:07:31.356Z,13.30
2023-09-23T01:08:31.406Z,13.39
2023-09-23T01:09:31.426Z,13.30
2023-09-23T01:10:31.448Z,13.29
2023-09-23T01:11:31.453Z,13.32
2023-09-23T01:12:31.475Z,13.26
2023-09-23T01:13:31.935Z,13.25
2023-09-23T01:14:31.528Z,13.28
2023-09-23T01:15:31.535Z,13.29
2023-09-23T01:16:31.541Z,13.20
2023-09-23T01:17:31.624Z,13.17
2023-09-23T01:18:31.586Z,13.12
2023-09-23T01:19:31.684Z,13.14
2023-09-23T01:20:31.624Z,13.17
2023-09-23T01:21:31.659Z,13.04
2023-09-23T01:22:31.666Z,13.14
2023-09-23T01:23:31.703Z,12.95
2023-09-23T01:24:31.735Z,12.97
2023-09-23T01:25:31.735Z,12.85
2023-09-23T01:26:31.778Z,12.83
2023-09-23T01:27:31.787Z,12.79
2023-09-23T01:28:31.809Z,12.78
2023-09-23T01:29:31.810Z,12.75
2023-09-23T01:30:31.889Z,12.70
2023-09-23T01:31:31.914Z,12.68
2023-09-23T01:32:31.974Z,12.71
2023-09-23T01:33:31.986Z,12.71
2023-09-23T01:34:31.915Z,12.72
2023-09-23T01:35:31.969Z,12.70
2023-09-23T01:36:31.946Z,12.70
2023-09-23T01:37:31.976Z,12.67
2023-09-23T01:38:32.011Z,12.72
2023-09-23T01:39:32.008Z,12.71
2023-09-23T01:40:32.080Z,12.74
2023-09-23T01:41:32.049Z,12.75
2023-09-23T01:42:32.063Z,12.72
2023-09-23T01:43:32.101Z,12.72
2023-09-23T01:44:32.112Z,12.72
2023-09-23T01:45:32.166Z,12.64
2023-09-23T01:46:32.228Z,12.60
2023-09-23T01:47:32.303Z,12.62
2023-09-23T01:48:32.191Z,12.52
2023-09-23T01:49:32.205Z,12.59
2023-09-23T01:50:32.229Z,12.60
2023-09-23T01:51:32.286Z,12.57
2023-09-23T01:52:32.294Z,12.59
2023-09-23T01:53:32.286Z,12.47
2023-09-23T01:54:32.324Z,12.59
2023-09-23T01:55:32.344Z,12.56
2023-09-23T01:56:32.787Z,12.54
2023-09-23T01:57:32.365Z,12.56
2023-09-23T01:58:32.385Z,12.59
2023-09-23T01:59:32.401Z,12.54
2023-09-23T02:00:33.057Z,12.46
2023-09-23T02:01:32.441Z,12.42
2023-09-23T02:02:32.620Z,12.46
2023-09-23T02:03:32.580Z,12.46
2023-09-23T02:04:32.518Z,12.42
2023-09-23T02:05:32.527Z,12.41
2023-09-23T02:06:32.537Z,12.45
2023-09-23T02:07:32.605Z,12.45
2023-09-23T02:08:32.596Z,12.50
2023-09-23T02:09:32.604Z,12.49
2023-09-23T02:10:32.634Z,12.47
2023-09-23T02:11:32.668Z,12.53
2023-09-23T02:12:33.563Z,12.57
2023-09-23T02:13:32.677Z,12.47
2023-09-23T02:14:32.698Z,12.52
2023-09-23T02:15:32.725Z,12.41
2023-09-23T02:16:32.802Z,12.41
2023-09-23T02:17:32.838Z,12.42
2023-09-23T02:18:32.785Z,12.46
2023-09-23T02:19:32.833Z,12.39
2023-09-23T02:20:32.824Z,12.45
2023-09-23T02:21:32.839Z,12.49
2023-09-23T02:22:34.066Z,12.37
2023-09-23T02:23:32.930Z,12.35
2023-09-23T02:24:32.929Z,12.38
2023-09-23T02:25:32.920Z,12.35
2023-09-23T02:26:32.955Z,12.39
2023-09-23T02:27:33.006Z,12.42
2023-09-23T02:28:33.021Z,12.42
2023-09-23T02:29:33.048Z,12.39
2023-09-23T02:30:33.049Z,12.31
2023-09-23T02:31:33.045Z,12.35
2023-09-23T02:32:33.081Z,12.27
2023-09-23T02:33:33.076Z,12.28
2023-09-23T02:34:33.164Z,12.39
2023-09-23T02:35:33.121Z,12.35
2023-09-23T02:36:33.161Z,12.24
2023-09-23T02:37:33.557Z,12.35
2023-09-23T02:38:33.199Z,12.28
2023-09-23T02:39:33.241Z,12.28
2023-09-23T02:40:33.237Z,12.27
2023-09-23T02:41:33.246Z,12.39
2023-09-23T02:42:33.277Z,12.35
2023-09-23T02:43:33.307Z,12.20
2023-09-23T02:44:33.342Z,12.34
2023-09-23T02:45:33.318Z,12.29
2023-09-23T02:46:33.356Z,12.31
2023-09-23T02:47:33.465Z,12.29
2023-09-23T02:48:33.379Z,12.21
2023-09-23T02:49:33.426Z,12.17
2023-09-23T02:50:33.425Z,12.19
2023-09-23T02:51:33.474Z,12.19
2023-09-23T02:52:33.457Z,12.16
2023-09-23T02:53:33.489Z,12.17
2023-09-23T02:54:33.520Z,12.21
2023-09-23T02:55:33.553Z,12.17
2023-09-23T02:56:33.538Z,12.13
2023-09-23T02:57:33.567Z,12.10
2023-09-23T02:58:33.620Z,12.16
2023-09-23T02:59:33.602Z,12.12
2023-09-23T03:00:33.615Z,12.09
2023-09-23T03:01:33.657Z,12.13
2023-09-23T03:02:33.829Z,12.13
2023-09-23T03:03:33.779Z,12.04
2023-09-23T03:04:33.712Z,12.07
2023-09-23T03:05:33.806Z,12.07
2023-09-23T03:06:33.735Z,12.05
2023-09-23T03:07:33.764Z,12.10
2023-09-23T03:08:33.810Z,12.07
2023-09-23T03:09:33.894Z,12.14
2023-09-23T03:10:33.909Z,12.05
2023-09-23T03:11:33.861Z,12.05
2023-09-23T03:12:33.849Z,12.05
2023-09-23T03:13:33.869Z,12.07
2023-09-23T03:14:33.911Z,12.07
2023-09-23T03:15:33.955Z,12.07
2023-09-23T03:16:34.212Z,12.10
2023-09-23T03:17:34.021Z,12.04
2023-09-23T03:18:33.979Z,12.12
2023-09-23T03:19:33.997Z,12.17
2023-09-23T03:20:34.055Z,12.13
2023-09-23T03:21:34.021Z,12.07
2023-09-23T03:22:34.049Z,12.10
2023-09-23T03:23:34.090Z,12.09
2023-09-23T03:24:34.082Z,12.13
2023-09-23T03:25:34.099Z,12.14
2023-09-23T03:26:34.207Z,12.07
2023-09-23T03:27:34.132Z,12.10
2023-09-23T03:28:34.150Z,12.10
2023-09-23T03:29:34.279Z,12.14
2023-09-23T03:30:34.243Z,12.13
2023-09-23T03:31:34.243Z,12.09
2023-09-23T03:32:34.401Z,12.10
2023-09-23T03:33:34.307Z,12.10
2023-09-23T03:34:34.294Z,12.04
2023-09-23T03:35:34.288Z,12.01
2023-09-23T03:36:34.331Z,12.12
2023-09-23T03:37:34.319Z,12.10
2023-09-23T03:38:34.348Z,12.12
2023-09-23T03:39:34.365Z,12.09
2023-09-23T03:40:34.384Z,12.04
2023-09-23T03:41:34.430Z,12.09
2023-09-23T03:42:34.416Z,12.12
2023-09-23T03:43:34.448Z,12.13
2023-09-23T03:44:34.459Z,12.05
2023-09-23T03:45:34.483Z,12.02
2023-09-23T03:46:34.527Z,12.09
2023-09-23T03:47:34.549Z,12.05
2023-09-23T03:48:34.552Z,12.09
2023-09-23T03:49:34.554Z,12.05
2023-09-23T03:50:34.650Z,12.02
2023-09-23T03:51:34.619Z,12.04
2023-09-23T03:52:34.613Z,12.05
2023-09-23T03:53:34.632Z,12.09
2023-09-23T03:54:34.749Z,12.02
2023-09-23T03:55:34.709Z,12.04
2023-09-23T03:56:34.745Z,12.10
2023-09-23T03:57:34.709Z,12.07
2023-09-23T03:58:34.759Z,12.09
2023-09-23T03:59:34.760Z,12.12
2023-09-23T04:00:34.789Z,12.10
2023-09-23T04:01:34.942Z,12.04
2023-09-23T04:02:34.874Z,12.07
2023-09-23T04:03:34.837Z,12.09
2023-09-23T04:04:34.846Z,12.09
2023-09-23T04:05:34.863Z,12.10
2023-09-23T04:06:34.924Z,12.02
2023-09-23T04:07:34.907Z,11.99
2023-09-23T04:08:34.946Z,12.05
2023-09-23T04:09:34.949Z,12.04
2023-09-23T04:10:34.966Z,11.99
2023-09-23T04:11:35.012Z,12.01
2023-09-23T04:12:35.015Z,12.01
2023-09-23T04:13:35.080Z,12.01
2023-09-23T04:14:35.042Z,12.02
2023-09-23T04:15:35.064Z,12.04
2023-09-23T04:16:35.113Z,11.86
2023-09-23T04:17:35.162Z,11.91
2023-09-23T04:18:35.164Z,11.90
2023-09-23T04:19:35.146Z,11.88
2023-09-23T04:20:35.156Z,11.79
2023-09-23T04:21:35.225Z,11.86
2023-09-23T04:22:35.196Z,11.86
2023-09-23T04:23:35.244Z,11.90
2023-09-23T04:24:35.257Z,11.86
2023-09-23T04:25:35.250Z,11.73
2023-09-23T04:26:35.314Z,11.82
2023-09-23T04:27:35.291Z,11.83
2023-09-23T04:28:35.342Z,11.78
2023-09-23T04:29:35.327Z,11.80
2023-09-23T04:30:35.354Z,11.75
2023-09-23T04:31:35.373Z,11.69
2023-09-23T04:32:35.453Z,11.67
2023-09-23T04:33:35.472Z,11.79
2023-09-23T04:34:35.424Z,11.69
2023-09-23T04:35:35.442Z,11.64
2023-09-23T04:36:35.466Z,11.70
2023-09-23T04:37:35.479Z,11.64
2023-09-23T04:38:35.555Z,11.64
2023-09-23T04:39:35.555Z,11.72
2023-09-23T04:40:35.537Z,11.65
2023-09-23T04:41:35.562Z,11.64
2023-09-23T04:42:35.597Z,11.73
2023-09-23T04:43:35.622Z,11.69
2023-09-23T04:44:35.631Z,11.65
2023-09-23T04:45:35.688Z,11.64
2023-09-23T04:46:35.668Z,11.70
2023-09-23T04:47:35.676Z,11.64
2023-09-23T04:48:35.746Z,11.73
2023-09-23T04:49:35.717Z,11.69
2023-09-23T04:50:35.753Z,11.65
2023-09-23T04:51:35.812Z,11.61
2023-09-23T04:52:35.779Z,11.67
2023-09-23T04:53:35.791Z,11.64
2023-09-23T04:54:35.814Z,11.70
2023-09-23T04:55:35.828Z,11.67
2023-09-23T04:56:35.910Z,11.69
2023-09-23T04:57:35.867Z,11.65
2023-09-23T04:58:35.891Z,11.69
2023-09-23T04:59:35.929Z,11.67
2023-09-23T05:00:35.944Z,11.65
2023-09-23T05:01:36.001Z,11.64
2023-09-23T05:02:36.343Z,11.67
2023-09-23T05:03:36.016Z,11.65
2023-09-23T05:04:36.218Z,11.64
2023-09-23T05:05:36.254Z,11.65
2023-09-23T05:06:36.091Z,11.64
2023-09-23T05:07:36.100Z,11.64
2023-09-23T05:08:36.102Z,11.61
2023-09-23T05:09:36.103Z,11.58
2023-09-23T05:10:36.127Z,11.62
2023-09-23T05:11:36.142Z,11.60
2023-09-23T05:12:36.211Z,11.62
2023-09-23T05:13:37.111Z,11.65
2023-09-23T05:14:36.202Z,11.69
2023-09-23T05:15:36.270Z,11.73
2023-09-23T05:16:36.251Z,11.76
2023-09-23T05:17:36.325Z,11.79
2023-09-23T05:18:36.324Z,11.73
2023-09-23T05:19:36.392Z,11.73
2023-09-23T05:20:36.321Z,11.69
2023-09-23T05:21:36.356Z,11.67
2023-09-23T05:22:36.397Z,11.70
2023-09-23T05:23:36.546Z,11.73
2023-09-23T05:24:36.403Z,11.64
2023-09-23T05:25:36.414Z,11.69
2023-09-23T05:26:37.398Z,11.69
2023-09-23T05:27:36.556Z,11.64
2023-09-23T05:28:36.479Z,11.72
2023-09-23T05:29:36.508Z,11.60
2023-09-23T05:30:36.641Z,11.72
2023-09-23T05:31:36.530Z,11.73
2023-09-23T05:32:36.680Z,11.67
2023-09-23T05:33:36.682Z,11.72
2023-09-23T05:34:36.593Z,11.76
2023-09-23T05:35:36.617Z,11.69
2023-09-23T05:36:36.633Z,11.69
2023-09-23T05:37:36.665Z,11.72
2023-09-23T05:38:37.621Z,11.78
2023-09-23T05:39:36.688Z,11.85
2023-09-23T05:40:36.807Z,11.83
2023-09-23T05:41:36.751Z,11.88
2023-09-23T05:42:37.039Z,11.85
2023-09-23T05:43:36.763Z,11.82
2023-09-23T05:44:36.820Z,11.91
2023-09-23T05:45:36.865Z,11.85
2023-09-23T05:46:36.964Z,11.96
2023-09-23T05:47:36.981Z,11.90
2023-09-23T05:48:36.922Z,11.94
2023-09-23T05:49:36.887Z,12.01
2023-09-23T05:50:36.912Z,11.86
2023-09-23T05:51:36.920Z,11.90
2023-09-23T05:52:36.947Z,11.96
2023-09-23T05:53:36.996Z,11.99
2023-09-23T05:54:36.995Z,12.02
2023-09-23T05:55:37.011Z,12.02
2023-09-23T05:56:37.036Z,12.02
2023-09-23T05:57:37.039Z,12.02
2023-09-23T05:58:37.107Z,11.96
2023-09-23T05:59:37.093Z,12.05
2023-09-23T06:00:37.134Z,12.07
2023-09-23T06:01:37.128Z,12.10
2023-09-23T06:02:37.223Z,12.05
2023-09-23T06:03:37.266Z,12.02
2023-09-23T06:04:37.192Z,12.02
2023-09-23T06:05:37.251Z,12.07
2023-09-23T06:06:37.217Z,12.05
2023-09-23T06:07:37.243Z,12.09
2023-09-23T06:08:37.290Z,12.02
2023-09-23T06:09:37.277Z,12.02
2023-09-23T06:10:38.159Z,12.04
2023-09-23T06:11:37.400Z,12.04
2023-09-23T06:12:37.382Z,12.02
2023-09-23T06:13:37.391Z,12.10
2023-09-23T06:14:37.445Z,12.04
2023-09-23T06:15:37.607Z,12.02
2023-09-23T06:16:37.462Z,12.04
2023-09-23T06:17:37.706Z,11.99
2023-09-23T06:18:37.455Z,11.95
2023-09-23T06:19:37.483Z,11.96
2023-09-23T06:20:37.530Z,11.96
2023-09-23T06:21:37.512Z,11.95
2023-09-23T06:22:37.538Z,11.96
2023-09-23T06:23:37.596Z,12.01
2023-09-23T06:24:37.993Z,11.91
2023-09-23T06:25:37.652Z,11.99
2023-09-23T06:26:37.830Z,11.96
2023-09-23T06:27:37.635Z,11.86
2023-09-23T06:28:37.760Z,11.95
2023-09-23T06:29:37.669Z,11.94
2023-09-23T06:30:37.697Z,11.95
2023-09-23T06:31:37.713Z,11.91
2023-09-23T06:32:37.827Z,11.91
2023-09-23T06:33:37.753Z,11.98
2023-09-23T06:34:37.766Z,12.02
2023-09-23T06:35:37.803Z,11.99
2023-09-23T06:36:37.805Z,12.02
2023-09-23T06:37:37.854Z,12.05
2023-09-23T06:38:37.867Z,12.07
2023-09-23T06:39:37.874Z,12.01
2023-09-23T06:40:38.171Z,12.05
2023-09-23T06:41:37.909Z,12.09
2023-09-23T06:42:37.922Z,12.14
2023-09-23T06:43:37.955Z,12.10
2023-09-23T06:44:37.969Z,12.14
2023-09-23T06:45:38.020Z,12.13
2023-09-23T06:46:38.030Z,12.12
2023-09-23T06:47:38.255Z,12.12
2023-09-23T06:48:38.042Z,12.19
2023-09-23T06:49:38.121Z,12.14
2023-09-23T06:50:38.078Z,12.21
2023-09-23T06:51:38.105Z,12.21
2023-09-23T06:52:38.183Z,12.16
2023-09-23T06:53:38.140Z,12.17
2023-09-23T06:54:38.199Z,12.23
2023-09-23T06:55:38.177Z,12.23
2023-09-23T06:56:38.270Z,12.32
2023-09-23T06:57:38.226Z,12.20
2023-09-23T06:58:38.243Z,12.32
2023-09-23T06:59:38.262Z,12.31
2023-09-23T07:00:38.280Z,12.31
2023-09-23T07:01:38.342Z,12.29
2023-09-23T07:02:38.518Z,12.28
2023-09-23T07:03:38.412Z,12.28
2023-09-23T07:04:38.355Z,12.24
2023-09-23T07:05:38.392Z,12.16
2023-09-23T07:06:38.412Z,12.34
2023-09-23T07:07:38.467Z,12.29
2023-09-23T07:08:38.437Z,12.27
2023-09-23T07:09:38.458Z,12.27
2023-09-23T07:10:38.479Z,12.39
2023-09-23T07:11:38.512Z,12.32
2023-09-23T07:12:38.564Z,12.32
2023-09-23T07:13:38.533Z,12.27
2023-09-23T07:14:38.596Z,12.28
2023-09-23T07:15:38.573Z,12.34
2023-09-23T07:16:38.688Z,12.35
2023-09-23T07:17:38.705Z,12.31
2023-09-23T07:18:38.636Z,12.38
2023-09-23T07:19:38.664Z,12.41
2023-09-23T07:20:38.673Z,12.34
2023-09-23T07:21:38.703Z,12.42
2023-09-23T07:22:38.876Z,12.37
2023-09-23T07:23:38.768Z,12.37
2023-09-23T07:24:38.774Z,12.38
2023-09-23T07:25:38.954Z,12.38
2023-09-23T07:26:38.793Z,12.32
2023-09-23T07:27:38.814Z,12.41
2023-09-23T07:28:38.858Z,12.38
2023-09-23T07:29:38.861Z,12.32
2023-09-23T07:30:38.929Z,12.37
2023-09-23T07:31:38.895Z,12.37
2023-09-23T07:32:39.045Z,12.38
2023-09-23T07:33:38.937Z,12.42
2023-09-23T07:34:39.004Z,12.46
2023-09-23T07:35:38.975Z,12.41
2023-09-23T07:36:38.990Z,12.50
2023-09-23T07:37:39.021Z,12.42
2023-09-23T07:38:39.055Z,12.46
2023-09-23T07:39:39.044Z,12.47
2023-09-23T07:40:39.085Z,12.50
2023-09-23T07:41:39.097Z,12.53
2023-09-23T07:42:39.103Z,12.53
2023-09-23T07:43:39.125Z,12.54
2023-09-23T07:44:39.144Z,12.47
2023-09-23T07:45:39.242Z,12.50
2023-09-23T07:46:39.186Z,12.54
2023-09-23T07:47:39.285Z,12.53
2023-09-23T07:48:39.231Z,12.53
2023-09-23T07:49:39.278Z,12.54
2023-09-23T07:50:39.257Z,12.54
2023-09-23T07:51:39.282Z,12.60
2023-09-23T07:52:39.312Z,12.57
2023-09-23T07:53:39.324Z,12.56
2023-09-23T07:54:39.387Z,12.70
2023-09-23T07:55:39.363Z,12.70
2023-09-23T07:56:39.468Z,12.70
2023-09-23T07:57:39.408Z,12.75
2023-09-23T07:58:39.422Z,12.75
2023-09-23T07:59:39.486Z,12.77
2023-09-23T08:00:39.489Z,12.77
2023-09-23T08:03:36.622Z,12.79
2023-09-23T08:04:35.141Z,12.85
2023-09-23T08:05:35.127Z,12.79
2023-09-23T08:06:36.890Z,12.82
2023-09-23T08:07:35.134Z,12.75
2023-09-23T08:08:45.512Z,12.79
2023-09-23T08:09:37.055Z,12.83
2023-09-23T08:10:36.957Z,12.79
2023-09-23T08:11:35.326Z,12.83
2023-09-23T08:12:35.251Z,12.92
2023-09-23T08:13:35.269Z,12.92
2023-09-23T08:14:35.487Z,13.05
2023-09-23T08:15:35.305Z,12.97
2023-09-23T08:16:37.057Z,13.01
2023-09-23T08:17:36.097Z,13.14
2023-09-23T08:18:35.345Z,13.04
2023-09-23T08:19:35.397Z,13.11
2023-09-23T08:20:35.419Z,13.11
2023-09-23T08:21:35.411Z,13.11
2023-09-23T08:22:35.474Z,13.19
2023-09-23T08:23:35.560Z,13.22
2023-09-23T08:24:35.478Z,13.23
2023-09-23T08:25:35.488Z,13.19
2023-09-23T08:26:35.547Z,13.26
2023-09-23T08:27:35.554Z,13.28
2023-09-23T08:28:35.584Z,13.20
2023-09-23T08:29:35.564Z,13.15
2023-09-23T08:30:35.602Z,13.29
2023-09-23T08:31:35.641Z,13.12
2023-09-23T08:32:35.713Z,13.22
2023-09-23T08:33:35.722Z,13.26
2023-09-23T08:34:36.499Z,13.22
2023-09-23T08:35:35.727Z,13.30
2023-09-23T08:36:35.729Z,13.22
2023-09-23T08:37:35.729Z,13.38
2023-09-23T08:38:35.982Z,13.38
2023-09-23T08:39:35.777Z,13.44
2023-09-23T08:40:35.792Z,13.39
2023-09-23T08:41:36.076Z,13.39
2023-09-23T08:42:35.837Z,13.45
2023-09-23T08:43:35.883Z,13.49
2023-09-23T08:44:35.866Z,13.54
2023-09-23T08:45:35.936Z,13.48
2023-09-23T08:46:35.933Z,13.55
2023-09-23T08:47:36.028Z,13.62
2023-09-23T08:48:36.018Z,13.55
2023-09-23T08:49:36.010Z,13.46
2023-09-23T08:50:36.049Z,13.62
2023-09-23T08:51:36.037Z,13.55
2023-09-23T08:52:36.030Z,13.57
2023-09-23T08:53:36.226Z,13.57
2023-09-23T08:54:36.077Z,13.48
2023-09-23T08:55:36.097Z,13.59
2023-09-23T08:56:36.156Z,13.62
2023-09-23T08:57:36.152Z,13.59
2023-09-23T08:58:36.205Z,13.59
2023-09-23T08:59:36.529Z,13.62
2023-09-23T09:00:36.230Z,13.62
2023-09-23T09:01:36.250Z,13.55
2023-09-23T09:02:36.310Z,13.52
2023-09-23T09:03:36.285Z,13.62
2023-09-23T09:04:36.330Z,13.55
2023-09-23T09:05:36.396Z,13.51
2023-09-23T09:06:36.316Z,13.39
2023-09-23T09:07:36.338Z,13.55
2023-09-23T09:08:36.356Z,13.51
2023-09-23T09:09:36.447Z,13.46
2023-09-23T09:10:36.445Z,13.46
2023-09-23T09:11:36.437Z,13.49
2023-09-23T09:12:36.456Z,13.46
2023-09-23T09:13:36.514Z,13.54
2023-09-23T09:14:36.575Z,13.51
2023-09-23T09:15:36.626Z,13.52
2023-09-23T09:16:36.550Z,13.57
2023-09-23T09:17:36.718Z,13.62
2023-09-23T09:18:36.587Z,13.63
2023-09-23T09:19:36.612Z,13.59
2023-09-23T09:20:36.643Z,13.59
2023-09-23T09:21:36.634Z,13.69
2023-09-23T09:22:36.645Z,13.67
2023-09-23T09:23:36.710Z,13.69
2023-09-23T09:24:36.741Z,13.64
2023-09-23T09:25:36.700Z,13.70
2023-09-23T09:26:36.910Z,13.57
2023-09-23T09:27:36.743Z,13.69
2023-09-23T09:28:36.763Z,13.69
2023-09-23T09:29:36.811Z,13.77
2023-09-23T09:30:36.804Z,13.84
2023-09-23T09:31:36.869Z,13.89
2023-09-23T09:32:36.941Z,13.89
2023-09-23T09:33:36.888Z,14.06
2023-09-23T09:34:36.901Z,14.06
2023-09-23T09:35:36.948Z,14.12
2023-09-23T09:36:36.984Z,14.14
2023-09-23T09:37:36.950Z,14.14
2023-09-23T09:38:37.039Z,14.12
2023-09-23T09:39:37.046Z,14.12
2023-09-23T09:40:37.011Z,14.14
2023-09-23T09:41:37.054Z,13.99
2023-09-23T09:42:37.077Z,14.09
2023-09-23T09:43:37.074Z,14.14
2023-09-23T09:44:37.208Z,14.09
2023-09-23T09:45:37.114Z,14.03
2023-09-23T09:46:37.174Z,14.04
2023-09-23T09:47:37.225Z,14.04
2023-09-23T09:48:37.186Z,14.04
2023-09-23T09:49:37.247Z,13.99
2023-09-23T09:50:37.302Z,13.87
2023-09-23T09:51:37.249Z,14.02
2023-09-23T09:52:37.265Z,14.04
2023-09-23T09:53:37.344Z,13.97
2023-09-23T09:54:37.336Z,14.00
2023-09-23T09:55:37.366Z,13.91
2023-09-23T09:56:37.367Z,13.99
2023-09-23T09:57:37.366Z,14.03
2023-09-23T09:58:37.383Z,13.88
2023-09-23T09:59:37.486Z,13.89
2023-09-23T10:00:37.457Z,14.00
2023-09-23T10:01:37.499Z,14.02
2023-09-23T10:02:37.577Z,13.92
2023-09-23T10:03:37.686Z,13.88
2023-09-23T10:04:37.545Z,13.91
2023-09-23T10:05:37.599Z,13.99
2023-09-23T10:06:37.555Z,13.84
2023-09-23T10:07:37.597Z,13.87
2023-09-23T10:08:37.641Z,13.99
2023-09-23T10:09:37.656Z,13.88
2023-09-23T10:10:37.634Z,13.92
2023-09-23T10:11:37.670Z,13.91
2023-09-23T10:12:37.679Z,14.00
2023-09-23T10:13:37.714Z,14.04
2023-09-23T10:14:37.804Z,14.02
2023-09-23T10:15:37.742Z,14.00
2023-09-23T10:16:37.802Z,14.00
2023-09-23T10:17:37.837Z,14.00
2023-09-23T10:18:37.880Z,14.02
2023-09-23T10:19:37.824Z,14.03
2023-09-23T10:20:37.877Z,14.00
2023-09-23T10:21:37.877Z,14.06
2023-09-23T10:22:37.894Z,14.02
2023-09-23T10:23:37.927Z,14.02
2023-09-23T10:24:37.933Z,14.02
2023-09-23T10:25:37.957Z,14.14
2023-09-23T10:26:38.023Z,14.04
2023-09-23T10:27:37.985Z,14.12
2023-09-23T10:28:38.005Z,14.12
2023-09-23T10:29:38.105Z,14.20
2023-09-23T10:30:38.102Z,14.09
2023-09-23T10:31:38.126Z,14.17
2023-09-23T10:32:38.220Z,14.09
2023-09-23T10:33:38.140Z,14.14
2023-09-23T10:34:46.137Z,14.22
2023-09-23T10:35:38.227Z,14.20
2023-09-23T10:36:38.333Z,14.21
2023-09-23T10:37:38.222Z,14.24
2023-09-23T10:38:38.222Z,14.22
2023-09-23T10:39:38.273Z,14.24
2023-09-23T10:40:38.268Z,14.29
2023-09-23T10:41:38.391Z,14.25
2023-09-23T10:42:38.331Z,14.36
2023-09-23T10:43:38.324Z,14.43
2023-09-23T10:44:38.406Z,14.47
2023-09-23T10:45:38.364Z,14.47
2023-09-23T10:46:38.442Z,14.51
2023-09-23T10:47:38.572Z,14.51
2023-09-23T10:48:38.442Z,14.58
2023-09-23T10:49:38.459Z,14.57
2023-09-23T10:50:38.510Z,14.58
2023-09-23T10:51:38.489Z,14.60
2023-09-23T10:52:38.547Z,14.57
2023-09-23T10:53:38.539Z,14.65
2023-09-23T10:54:38.554Z,14.68
2023-09-23T10:55:39.041Z,14.58
2023-09-23T10:56:38.643Z,14.64
2023-09-23T10:57:38.624Z,14.64
2023-09-23T10:58:38.719Z,14.77
2023-09-23T10:59:38.674Z,14.84
2023-09-23T11:00:38.700Z,14.81
2023-09-23T11:01:38.741Z,14.88
2023-09-23T11:02:38.854Z,14.81
2023-09-23T11:03:38.907Z,14.84
2023-09-23T11:04:38.771Z,14.80
2023-09-23T11:05:38.852Z,14.92
2023-09-23T11:06:38.828Z,14.92
2023-09-23T11:07:38.849Z,14.94
2023-09-23T11:08:38.905Z,14.95
2023-09-23T11:09:38.878Z,14.95
2023-09-23T11:10:38.980Z,14.98
2023-09-23T11:11:38.959Z,14.98
2023-09-23T11:12:38.959Z,15.03
2023-09-23T11:13:38.959Z,15.06
2023-09-23T11:14:39.000Z,15.09
2023-09-23T11:15:39.026Z,15.06
2023-09-23T11:16:39.094Z,15.09
2023-09-23T11:17:39.105Z,15.07
2023-09-23T11:18:39.086Z,15.11
2023-09-23T11:19:39.082Z,15.11
2023-09-23T11:20:39.161Z,15.17
2023-09-23T11:21:39.175Z,15.21
2023-09-23T11:22:39.155Z,15.27
2023-09-23T11:23:39.240Z,15.34
2023-09-23T11:24:39.202Z,15.41
2023-09-23T11:25:39.222Z,15.39
2023-09-23T11:26:39.263Z,15.29
2023-09-23T11:27:39.326Z,15.29
2023-09-23T11:28:39.290Z,15.38
2023-09-23T11:29:39.351Z,15.32
2023-09-23T11:30:39.335Z,15.39
2023-09-23T11:31:39.417Z,15.50
2023-09-23T11:32:39.474Z,15.51
2023-09-23T11:33:39.390Z,15.51
2023-09-23T11:34:39.408Z,15.57
2023-09-23T11:35:39.480Z,15.57
2023-09-23T11:36:39.481Z,15.51
2023-09-23T11:37:39.479Z,15.47
2023-09-23T11:38:41.659Z,15.47
2023-09-23T11:39:39.516Z,15.50
2023-09-23T11:40:39.621Z,15.54
2023-09-23T11:41:39.626Z,15.50
2023-09-23T11:42:39.591Z,15.57
2023-09-23T11:43:39.608Z,15.53
2023-09-23T11:44:39.651Z,15.60
2023-09-23T11:45:39.745Z,15.64
2023-09-23T11:46:39.758Z,15.59
2023-09-23T11:47:39.745Z,15.76
2023-09-23T11:48:39.719Z,15.71
2023-09-23T11:49:39.741Z,15.86
2023-09-23T11:50:39.824Z,15.86
2023-09-23T11:51:39.811Z,15.87
2023-09-23T11:52:39.861Z,15.80
2023-09-23T11:53:39.863Z,15.80
2023-09-23T11:54:39.908Z,15.71
2023-09-23T11:55:39.874Z,15.75
2023-09-23T11:56:39.975Z,15.71
2023-09-23T11:57:39.975Z,15.69
2023-09-23T11:58:41.474Z,15.65
2023-09-23T11:59:40.002Z,15.57
2023-09-23T12:00:39.987Z,15.51
2023-09-23T12:01:40.008Z,15.59
2023-09-23T12:02:40.168Z,15.50
2023-09-23T12:03:40.109Z,15.50
2023-09-23T12:04:40.145Z,15.62
2023-09-23T12:05:40.110Z,15.74
2023-09-23T12:06:40.124Z,15.78
2023-09-23T12:07:40.197Z,15.87
2023-09-23T12:08:40.227Z,15.90
2023-09-23T12:09:40.186Z,15.93
2023-09-23T12:10:40.199Z,16.04
2023-09-23T12:11:40.233Z,16.07
2023-09-23T12:12:40.302Z,16.07
2023-09-23T12:13:40.271Z,16.09
2023-09-23T12:14:40.317Z,16.23
2023-09-23T12:15:40.315Z,16.24
2023-09-23T12:16:41.132Z,16.27
2023-09-23T12:17:40.480Z,16.25
2023-09-23T12:18:40.383Z,16.31
2023-09-23T12:19:40.402Z,16.25
2023-09-23T12:20:40.461Z,16.25
2023-09-23T12:21:40.472Z,16.27
2023-09-23T12:22:40.478Z,16.21
2023-09-23T12:23:40.589Z,16.09
2023-09-23T12:24:40.557Z,16.02
2023-09-23T12:25:40.540Z,15.94
2023-09-23T12:26:40.661Z,15.94
2023-09-23T12:27:40.587Z,16.00
2023-09-23T12:28:40.646Z,15.94
2023-09-23T12:29:40.638Z,15.89
2023-09-23T12:30:40.665Z,16.07
2023-09-23T12:31:40.666Z,16.12
2023-09-23T12:32:40.776Z,16.14
2023-09-23T12:33:40.721Z,16.28
2023-09-23T12:34:40.791Z,16.31
2023-09-23T12:35:40.810Z,16.34
2023-09-23T12:36:40.790Z,16.43
2023-09-23T12:37:40.842Z,16.46
2023-09-23T12:38:40.909Z,16.60
2023-09-23T12:39:40.916Z,16.57
2023-09-23T12:40:40.899Z,16.64
2023-09-23T12:41:40.950Z,16.61
2023-09-23T12:42:40.938Z,16.68
2023-09-23T12:43:40.959Z,16.57
2023-09-23T12:44:41.116Z,16.60
2023-09-23T12:45:41.017Z,16.41
2023-09-23T12:46:41.033Z,16.25
2023-09-23T12:47:56.140Z,16.23
2023-09-23T12:48:41.057Z,16.15
2023-09-23T12:49:41.120Z,16.05
2023-09-23T12:50:41.178Z,16.02
2023-09-23T12:51:41.184Z,16.02
2023-09-23T12:52:41.149Z,16.01
2023-09-23T12:53:41.250Z,16.09
2023-09-23T12:54:41.191Z,16.09